Etusivu
METAR-TAF:

METAR-TAF

Lentoasemat :

N’Djamenan kansainvälinen lentoasema

N'Djamena, Tšad

Leveyspiiri: 12-08N, Pituuspiiri: 015-02E, korkeus merenpinnasta: 295 m

Tämänhetkinen sää

Tämä raportti tehtiin 37 minuuttia sitten, kello 00.00 UTC
Tuuli 10 kn pohjoisesta
Lämpötila 26°C
Kosteus 12%
Ilmanpaine 1008 hPa
Näkyvyys: 8000 m

METAR: FTTJ 010000Z 01010KT 8000 NSC 26/M06 Q1008 NOSIG

Aika: 01:37 (00:37 UTC)

Sääennuste

Tämä raportti tehtiin 1 tunti ja 37 minuuttia sitten, kello 23.00 UTC
Ennuste voimassa 01. päivästä klo 00 UTC - 02. päivään klo 06 UTC
Tuuli 8 kn pohjoisesta
Näkyvyys: 8000 m
Ajoittain
01. päivästä klo 07 UTC - 01. päivään klo 12 UTC
Tuuli 18 kn koillisesta
Näkyvyys: 4500 m
hiekkaa

TAF: FTTJ 282300Z 0100/0206 01008KT 8000 NSC TEMPO 0107/0112 04018KT 4500 SA

Säähavainnot ja -ennusteet yli 4000 lentoasemalta (METAR- ja TAF-raportit).

Käytössä olevat sääasemat on merkitty karttaan keltaisilla ja punaisilla pisteillä.

Aseta hiiri pisteen päälle nähdäksesi sääaseman nimen.

Klikkaa sitten nähdäksesi säähavainnot ja -ennusteet.

Kartan vaihtaminen: klikkaa mustalla rastilla varustettuja vihreitä pisteitä, niin voit zoomata sisään; viivalla varustettua vihreää pistettä, niin voit zoomata ulos tai vihreitä nuolia, niin pääset viereisille kartoille.


METAR-TAF: